Time;durP1;ratioP1;P1;durP2;ratioP2;P2;SDS_P1;SDS_P2;PMS_P1;PMS_P2;Temp;Humidity;BMP_temperature;BMP_pressure;BME280_temperature;BME280_humidity;BME280_pressure;Samples;Min_cycle;Max_cycle;Signal;HPM_P1;HPM_P2
2022/03/25 00:00:15;;;;;;;481.92;60.38;;;;;;;;;;4998433;28;20427;-69
2022/03/25 00:02:41;;;;;;;543.22;65.53;;;;;;;;;;5004810;28;20421;-68
2022/03/25 00:05:07;;;;;;;334.38;58.13;;;;;;;;;;5007178;28;20425;-68
2022/03/25 00:07:34;;;;;;;488.65;63.90;;;;;;;;;;4987830;28;20500;-68
2022/03/25 00:10:00;;;;;;;623.85;68.68;;;;;;;;;;4988818;28;20424;-68
2022/03/25 00:12:26;;;;;;;569.47;68.88;;;4.90;99.90;;;;;;4982658;28;20456;-69
2022/03/25 00:14:52;;;;;;;631.53;73.47;;;;;;;;;;5030808;28;20447;-69
2022/03/25 00:17:18;;;;;;;471.15;61.83;;;;;;;;;;4977435;28;20537;-69
2022/03/25 00:19:45;;;;;;;476.67;63.03;;;;;;;;;;4996481;28;20504;-69
2022/03/25 00:22:11;;;;;;;293.58;54.78;;;;;;;;;;4999290;28;20432;-69
2022/03/25 00:24:37;;;;;;;285.50;54.73;;;;;;;;;;4986313;28;20561;-69
2022/03/25 00:27:04;;;;;;;295.55;53.08;;;;;;;;;;4980415;28;20939;-68
2022/03/25 00:29:30;;;;;;;109.72;49.35;;;;;;;;;;4990812;28;20471;-68
2022/03/25 00:31:56;;;;;;;86.90;49.50;;;;;;;;;;4998220;28;20440;-69
2022/03/25 00:34:22;;;;;;;90.50;50.13;;;;;;;;;;4963632;28;20437;-68
2022/03/25 00:36:48;;;;;;;78.17;48.37;;;;;;;;;;5009860;28;20429;-68
2022/03/25 00:39:14;;;;;;;72.15;46.88;;;;;;;;;;4995160;28;20465;-68
2022/03/25 00:41:41;;;;;;;64.72;45.63;;;;;;;;;;4990453;28;20425;-68
2022/03/25 00:44:07;;;;;;;66.20;45.55;;;;;;;;;;4999891;28;20433;-68
2022/03/25 00:46:34;;;;;;;67.55;45.95;;;;;;;;;;5034759;28;20440;-69
2022/03/25 00:49:00;;;;;;;65.63;45.20;;;;;;;;;;4976705;28;20441;-69
2022/03/25 00:51:27;;;;;;;66.85;45.85;;;3.90;99.90;;;;;;5009510;28;20429;-68
2022/03/25 00:53:53;;;;;;;104.35;46.33;;;;;;;;;;4984288;28;20425;-68
2022/03/25 00:56:20;;;;;;;131.50;47.15;;;;;;;;;;4997755;28;20432;-68
2022/03/25 00:58:46;;;;;;;92.90;45.50;;;;;;;;;;5006263;28;20417;-69
2022/03/25 01:01:12;;;;;;;366.25;53.83;;;;;;;;;;4990084;28;20421;-69
2022/03/25 01:03:39;;;;;;;256.02;49.25;;;;;;;;;;4999780;28;20855;-69
2022/03/25 01:06:05;;;;;;;253.90;49.83;;;;;;;;;;4999374;28;20429;-70
2022/03/25 01:08:31;;;;;;;246.93;48.30;;;;;;;;;;4992805;28;20427;-70
2022/03/25 01:10:57;;;;;;;173.55;46.45;;;;;;;;;;4989211;28;21055;-67
2022/03/25 01:13:24;;;;;;;247.38;50.78;;;;;;;;;;4989669;28;20420;-69
2022/03/25 01:15:50;;;;;;;64.13;43.28;;;;;;;;;;5000380;28;20482;-68
2022/03/25 01:18:16;;;;;;;79.53;45.70;;;;;;;;;;5003470;28;20625;-69
2022/03/25 01:20:42;;;;;;;157.38;49.63;;;;;;;;;;4992722;28;20430;-68
2022/03/25 01:23:09;;;;;;;151.73;46.30;;;;;;;;;;4990606;28;20431;-68
2022/03/25 01:25:36;;;;;;;101.57;44.65;;;;;;;;;;5040178;28;20504;-68
2022/03/25 01:28:02;;;;;;;103.72;48.50;;;;;;;;;;4993645;28;20467;-68
2022/03/25 01:30:28;;;;;;;139.77;48.80;;;;;;;;;;5002301;28;20427;-68
2022/03/25 01:32:55;;;;;;;75.45;47.65;;;;;;;;;;4992158;28;20426;-69
2022/03/25 01:35:24;;;;;;;71.13;44.28;;;;;;;;;;4991699;28;20504;-68
2022/03/25 01:37:50;;;;;;;74.95;44.00;;;;;;;;;;5010941;28;20425;-68
2022/03/25 01:40:16;;;;;;;83.22;45.45;;;;;;;;;;5022169;28;20792;-68
2022/03/25 01:42:42;;;;;;;204.87;52.17;;;;;;;;;;4986144;28;20409;-68
2022/03/25 01:45:11;;;;;;;222.23;50.47;;;;;;;;;;5003247;28;20435;-68
2022/03/25 01:47:38;;;;;;;126.85;50.00;;;;;;;;;;4987422;28;20425;-68
2022/03/25 01:50:05;;;;;;;208.60;54.20;;;;;;;;;;5004584;28;20452;-68
2022/03/25 01:52:34;;;;;;;166.50;50.65;;;;;;;;;;4994728;28;20426;-68
2022/03/25 01:55:13;;;;;;;84.47;49.17;;;;;;;;;;5009880;28;21004;-68
2022/03/25 01:57:39;;;;;;;124.32;51.20;;;;;;;;;;5007192;28;20429;-68
2022/03/25 02:00:06;;;;;;;88.03;49.78;;;;;;;;;;5008863;28;21020;-68
2022/03/25 02:02:32;;;;;;;79.68;49.20;;;;;;;;;;5024984;28;20539;-68
2022/03/25 02:04:59;;;;;;;80.57;48.58;;;;;;;;;;5000044;28;20444;-68
2022/03/25 02:07:26;;;;;;;77.28;46.67;;;;;;;;;;5002165;28;20421;-68
2022/03/25 02:09:52;;;;;;;120.70;48.65;;;;;;;;;;4986085;28;20447;-68
2022/03/25 02:12:18;;;;;;;117.63;48.95;;;;;;;;;;4981912;28;20626;-68
2022/03/25 02:14:44;;;;;;;487.88;56.50;;;;;;;;;;5018331;28;20427;-68
2022/03/25 02:17:10;;;;;;;523.40;61.23;;;;;;;;;;5006197;28;20523;-69
2022/03/25 02:19:36;;;;;;;485.25;58.80;;;;;;;;;;4999515;28;20445;-68
2022/03/25 02:22:02;;;;;;;429.73;56.63;;;;;;;;;;4998543;28;20500;-68
2022/03/25 02:24:29;;;;;;;563.03;59.08;;;;;;;;;;5004875;28;20433;-68
2022/03/25 02:26:55;;;;;;;474.02;55.20;;;;;;;;;;5019348;28;20431;-68
2022/03/25 02:29:23;;;;;;;441.13;58.72;;;;;;;;;;4998635;28;20504;-68
2022/03/25 02:31:49;;;;;;;568.55;62.80;;;;;;;;;;5001711;28;20450;-68
2022/03/25 02:34:15;;;;;;;716.42;70.45;;;;;;;;;;5034189;28;20420;-68
2022/03/25 02:36:43;;;;;;;572.42;62.00;;;;;;;;;;4971220;28;20470;-69
2022/03/25 02:39:10;;;;;;;508.52;58.90;;;;;;;;;;4989728;28;20433;-68
2022/03/25 02:41:36;;;;;;;490.35;56.38;;;;;;;;;;5009145;28;20425;-68
2022/03/25 02:44:03;;;;;;;442.02;54.55;;;;;;;;;;4999858;28;20445;-68
2022/03/25 02:46:29;;;;;;;275.52;48.80;;;;;;;;;;4965183;28;20474;-68
2022/03/25 02:48:55;;;;;;;333.27;51.63;;;;;;;;;;5007082;28;20915;-68
2022/03/25 02:51:21;;;;;;;431.02;53.50;;;;;;;;;;5004040;28;20434;-69
2022/03/25 02:53:48;;;;;;;404.42;49.92;;;;;;;;;;4988967;28;20426;-68
2022/03/25 02:56:14;;;;;;;338.35;49.10;;;;;;;;;;4988914;28;20425;-68
2022/03/25 02:58:40;;;;;;;122.45;44.53;;;;;;;;;;5003811;28;20517;-68
2022/03/25 03:01:09;;;;;;;271.83;47.38;;;;;;;;;;4984124;28;20467;-68
2022/03/25 03:03:36;;;;;;;369.50;54.60;;;;;;;;;;4980812;28;20423;-68
2022/03/25 03:06:02;;;;;;;131.23;49.08;;;;;;;;;;4998696;28;20431;-68
2022/03/25 03:08:29;;;;;;;124.43;49.25;;;;;;;;;;4991108;28;20924;-68
2022/03/25 03:10:55;;;;;;;88.50;46.30;;;;;;;;;;5017203;28;20838;-68
2022/03/25 03:13:21;;;;;;;170.55;47.85;;;;;;;;;;4995778;28;20436;-68
2022/03/25 03:15:50;;;;;;;336.60;54.03;;;;;;;;;;5006330;28;21050;-67
2022/03/25 03:18:16;;;;;;;165.52;48.88;;;;;;;;;;4997610;28;20875;-68
2022/03/25 03:20:43;;;;;;;189.75;50.80;;;;;;;;;;4995540;28;20421;-67
2022/03/25 03:23:09;;;;;;;87.15;46.92;;;;;;;;;;4979315;28;20801;-68
2022/03/25 03:25:36;;;;;;;373.38;54.72;;;;;;;;;;4990796;28;20815;-67
2022/03/25 03:28:03;;;;;;;267.80;53.20;;;;;;;;;;4999990;28;20446;-67
2022/03/25 03:30:29;;;;;;;95.80;46.00;;;;;;;;;;5000035;28;20474;-67
2022/03/25 03:32:57;;;;;;;98.93;45.10;;;;;;;;;;4993418;28;20425;-69
2022/03/25 03:35:27;;;;;;;171.50;49.30;;;;;;;;;;4999755;28;20434;-68
2022/03/25 03:37:53;;;;;;;369.10;54.93;;;;;;;;;;5022448;28;20430;-69
2022/03/25 03:40:20;;;;;;;133.68;44.95;;;;;;;;;;4995649;28;20440;-68
2022/03/25 03:42:46;;;;;;;79.37;44.87;;;;;;;;;;4992355;28;20429;-68
2022/03/25 03:45:13;;;;;;;227.60;48.17;;;;;;;;;;4994581;28;20434;-68
2022/03/25 03:47:40;;;;;;;75.43;45.47;;;;;;;;;;5012359;28;20436;-68
2022/03/25 03:50:07;;;;;;;74.47;44.38;;;;;;;;;;4992074;28;20443;-68
2022/03/25 03:52:33;;;;;;;62.90;42.13;;;;;;;;;;5008083;28;20429;-68
2022/03/25 03:54:59;;;;;;;62.83;41.17;;;;;;;;;;4990200;28;20433;-68
2022/03/25 03:57:25;;;;;;;59.63;40.35;;;;;;;;;;4988122;28;20428;-67
2022/03/25 03:59:51;;;;;;;60.20;41.25;;;;;;;;;;4982420;28;20429;-69
2022/03/25 04:02:17;;;;;;;63.97;41.78;;;;;;;;;;4977496;28;20440;-68
2022/03/25 04:04:43;;;;;;;62.42;40.88;;;;;;;;;;4991772;28;20453;-67
2022/03/25 04:07:09;;;;;;;59.45;40.00;;;;;;;;;;5003592;28;20447;-68
2022/03/25 04:09:36;;;;;;;62.90;41.20;;;;;;;;;;4983998;28;20441;-67
2022/03/25 04:12:02;;;;;;;64.55;41.58;;;;;;;;;;4996726;28;20444;-68
2022/03/25 04:14:28;;;;;;;67.15;42.22;;;;;;;;;;5004627;28;20932;-69
2022/03/25 04:16:54;;;;;;;65.85;42.38;;;;;;;;;;4985558;28;20884;-68
2022/03/25 04:19:20;;;;;;;64.47;41.70;;;;;;;;;;4992557;28;20413;-69
2022/03/25 04:21:46;;;;;;;72.97;45.72;;;;;;;;;;5006409;28;20415;-68
2022/03/25 04:24:12;;;;;;;62.27;43.10;;;;;;;;;;5017619;28;20476;-68
2022/03/25 04:26:38;;;;;;;64.20;42.33;;;;;;;;;;5005388;28;21005;-68
2022/03/25 04:29:05;;;;;;;63.05;40.83;;;;;;;;;;4970262;28;20420;-68
2022/03/25 04:31:31;;;;;;;64.57;42.50;;;;;;;;;;5016598;28;20473;-68
2022/03/25 04:33:57;;;;;;;59.00;40.38;;;;;;;;;;4988438;28;20422;-69
2022/03/25 04:36:23;;;;;;;59.63;40.03;;;;;;;;;;4994262;28;20466;-68
2022/03/25 04:38:49;;;;;;;58.25;39.95;;;;;;;;;;5004294;28;20425;-68
2022/03/25 04:41:15;;;;;;;62.88;41.28;;;;;;;;;;5003082;28;20507;-70
2022/03/25 04:43:41;;;;;;;58.67;40.53;;;;;;;;;;4988981;28;20501;-68
2022/03/25 04:46:08;;;;;;;60.92;40.58;;;;;;;;;;4992393;28;20444;-67
2022/03/25 04:48:35;;;;;;;63.45;41.35;;;;;;;;;;4984437;28;20437;-68
2022/03/25 04:51:01;;;;;;;62.35;41.38;;;;;;;;;;4982880;28;20453;-69
2022/03/25 04:53:27;;;;;;;69.30;44.05;;;;;;;;;;5032209;28;20921;-68
2022/03/25 04:55:53;;;;;;;63.67;41.75;;;;;;;;;;4990198;28;20457;-70
2022/03/25 04:58:22;;;;;;;67.40;43.60;;;;;;;;;;4982699;28;20438;-68
2022/03/25 05:00:48;;;;;;;64.20;41.50;;;;;;;;;;5019345;28;20436;-68
2022/03/25 05:03:14;;;;;;;66.28;42.83;;;;;;;;;;4993978;28;20425;-68
2022/03/25 05:05:42;;;;;;;62.28;41.00;;;;;;;;;;5012275;28;20447;-69
2022/03/25 05:08:09;;;;;;;62.60;40.88;;;;;;;;;;4996301;28;20430;-68
2022/03/25 05:10:37;;;;;;;61.43;40.00;;;;;;;;;;4984961;28;20545;-69
2022/03/25 05:13:04;;;;;;;58.13;39.50;;;;;;;;;;4993409;28;20431;-68
2022/03/25 05:15:30;;;;;;;57.92;39.15;;;;;;;;;;4995745;28;20442;-69
2022/03/25 05:17:56;;;;;;;59.00;39.85;;;;;;;;;;4995505;28;20446;-68
2022/03/25 05:20:25;;;;;;;55.67;38.23;;;;;;;;;;4999618;28;20450;-68
2022/03/25 05:22:51;;;;;;;63.80;41.05;;;;;;;;;;4999424;28;20432;-68
2022/03/25 05:25:19;;;;;;;60.63;39.13;;;;;;;;;;4994346;28;20439;-68
2022/03/25 05:27:49;;;;;;;63.23;41.63;;;;;;;;;;5011681;28;20541;-68
2022/03/25 05:30:16;;;;;;;69.85;44.47;;;;;;;;;;4992637;28;20427;-68
2022/03/25 05:32:42;;;;;;;68.68;43.42;;;;;;;;;;5008395;28;20429;-68
2022/03/25 05:35:09;;;;;;;68.97;44.03;;;;;;;;;;5000472;28;20899;-68
2022/03/25 05:37:39;;;;;;;70.57;44.20;;;;;;;;;;5003976;28;20479;-68
2022/03/25 05:40:06;;;;;;;74.13;44.63;;;2.20;99.90;;;;;;4997967;28;21021;-69
2022/03/25 05:42:33;;;;;;;72.00;44.38;;;;;;;;;;5008865;28;20430;-68
2022/03/25 05:44:59;;;;;;;69.85;43.58;;;;;;;;;;5000315;28;20458;-68
2022/03/25 05:47:25;;;;;;;69.80;44.65;;;;;;;;;;4997973;28;20446;-68
2022/03/25 05:49:52;;;;;;;72.75;44.97;;;;;;;;;;4999886;28;20428;-68
2022/03/25 05:52:18;;;;;;;77.97;45.87;;;;;;;;;;5008160;28;20475;-68
2022/03/25 05:54:45;;;;;;;83.05;48.10;;;;;;;;;;4995159;28;20784;-68
2022/03/25 05:57:11;;;;;;;81.55;46.13;;;;;;;;;;5001202;28;20427;-68
2022/03/25 05:59:37;;;;;;;85.07;47.05;;;;;;;;;;4993069;28;20476;-68
2022/03/25 06:02:03;;;;;;;74.20;45.42;;;;;;;;;;4982267;28;20522;-68
2022/03/25 06:04:29;;;;;;;77.05;46.08;;;;;;;;;;5006451;28;21028;-68
2022/03/25 06:06:55;;;;;;;78.65;46.28;;;;;;;;;;4980783;28;20459;-68
2022/03/25 06:09:21;;;;;;;79.95;46.58;;;;;;;;;;4987738;28;20491;-68
2022/03/25 06:11:48;;;;;;;86.50;47.38;;;;;;;;;;5038568;28;21598;-69
2022/03/25 06:14:14;;;;;;;83.20;47.15;;;;;;;;;;4988674;28;20436;-69
2022/03/25 06:16:40;;;;;;;76.72;45.92;;;;;;;;;;4995979;28;20431;-68
2022/03/25 06:19:06;;;;;;;74.13;44.42;;;;;;;;;;4974770;28;21011;-69
2022/03/25 06:21:32;;;;;;;77.53;45.67;;;;;;;;;;5009008;28;21013;-68
2022/03/25 06:23:58;;;;;;;76.70;45.97;;;;;;;;;;5002711;28;20481;-68
2022/03/25 06:26:24;;;;;;;86.68;49.08;;;;;;;;;;4983617;28;20459;-69
2022/03/25 06:28:51;;;;;;;97.07;51.35;;;;;;;;;;4993197;28;20438;-69
2022/03/25 06:31:17;;;;;;;92.70;51.05;;;;;;;;;;4982123;28;20411;-69
2022/03/25 06:33:43;;;;;;;92.37;50.23;;;;;;;;;;5006523;28;20963;-69
2022/03/25 06:36:13;;;;;;;94.63;52.60;;;;;;;;;;5007995;28;20425;-69
2022/03/25 06:38:39;;;;;;;97.80;51.50;;;;;;;;;;4995636;28;20461;-69
2022/03/25 06:41:06;;;;;;;99.10;52.60;;;;;;;;;;4990453;28;20451;-69
2022/03/25 06:43:33;;;;;;;98.50;52.92;;;;;;;;;;4967448;28;20490;-68
2022/03/25 06:45:59;;;;;;;102.70;54.03;;;;;;;;;;4968242;28;20447;-70
2022/03/25 06:48:25;;;;;;;97.95;53.53;;;;;;;;;;5003874;28;20429;-69
2022/03/25 06:50:51;;;;;;;98.15;52.35;;;;;;;;;;5007883;28;20803;-69
2022/03/25 06:53:17;;;;;;;100.47;53.10;;;;;;;;;;4983517;28;20446;-69
2022/03/25 06:55:44;;;;;;;92.50;52.22;;;;;;;;;;4970169;28;20443;-70
2022/03/25 06:58:10;;;;;;;89.77;51.03;;;;;;;;;;5004770;28;20927;-70
2022/03/25 07:00:37;;;;;;;92.82;51.30;;;;;;;;;;4992291;28;20420;-69
2022/03/25 07:03:03;;;;;;;89.38;51.35;;;;;;;;;;5004763;28;20456;-69
2022/03/25 07:05:30;;;;;;;85.32;50.53;;;;;;;;;;4989610;28;20443;-69
2022/03/25 07:07:56;;;;;;;88.50;50.33;;;5.30;99.90;;;;;;4981493;28;21202;-69
2022/03/25 07:10:23;;;;;;;87.80;49.05;;;;;;;;;;5006305;28;20522;-70
2022/03/25 07:12:53;;;;;;;84.18;47.80;;;;;;;;;;4990432;28;20423;-69
2022/03/25 07:15:20;;;;;;;77.57;46.83;;;;;;;;;;5000806;28;20436;-69
2022/03/25 07:17:46;;;;;;;74.25;44.58;;;;;;;;;;4983377;28;20432;-69
2022/03/25 07:20:13;;;;;;;69.78;44.28;;;;;;;;;;4978306;28;20873;-70
2022/03/25 07:22:40;;;;;;;71.22;42.92;;;;;;;;;;4993301;28;20425;-69
2022/03/25 07:25:12;;;;;;;69.50;42.35;;;;;;;;;;4987280;28;20448;-69
2022/03/25 07:27:39;;;;;;;68.25;41.45;;;;;;;;;;4990782;28;20432;-70
2022/03/25 07:30:05;;;;;;;65.28;39.88;;;;;;;;;;5011314;28;20430;-70
2022/03/25 07:32:31;;;;;;;60.08;37.47;;;;;;;;;;5012866;28;20439;-70
2022/03/25 07:34:58;;;;;;;57.85;35.72;;;;;;;;;;4973393;28;20432;-70
2022/03/25 07:37:24;;;;;;;58.28;36.60;;;;;;;;;;5011032;28;20444;-69
2022/03/25 07:39:50;;;;;;;53.47;34.00;;;;;;;;;;4986887;28;20436;-70
2022/03/25 07:42:16;;;;;;;53.45;34.30;;;;;;;;;;4976222;28;20436;-69
2022/03/25 07:44:42;;;;;;;49.08;33.25;;;;;;;;;;4988986;28;20442;-70
2022/03/25 07:47:11;;;;;;;47.72;32.83;;;;;;;;;;4973801;28;20428;-70
2022/03/25 07:49:39;;;;;;;46.70;31.65;;;;;;;;;;4974378;28;20440;-70
2022/03/25 07:52:06;;;;;;;47.95;31.42;;;;;;;;;;4992735;28;20530;-69
2022/03/25 07:54:32;;;;;;;50.70;32.47;;;;;;;;;;4974061;28;20440;-70
2022/03/25 07:56:58;;;;;;;44.90;30.70;;;;;;;;;;4989213;28;20929;-70
2022/03/25 07:59:25;;;;;;;47.55;31.73;;;;;;;;;;5005856;28;20439;-70
2022/03/25 08:01:52;;;;;;;46.25;30.65;;;;;;;;;;4985036;28;22534;-70
2022/03/25 08:04:18;;;;;;;46.42;30.88;;;;;;;;;;5003563;28;20448;-70
2022/03/25 08:06:45;;;;;;;43.90;30.42;;;;;;;;;;4989424;28;20838;-70
2022/03/25 08:09:12;;;;;;;45.65;30.38;;;;;;;;;;4972506;28;20517;-70
2022/03/25 08:11:39;;;;;;;44.95;29.58;;;;;;;;;;4979099;28;20437;-69
2022/03/25 08:14:06;;;;;;;42.83;29.17;;;;;;;;;;4980985;28;20437;-69
2022/03/25 08:16:33;;;;;;;41.78;28.35;;;;;;;;;;4992512;28;20443;-69
2022/03/25 08:18:59;;;;;;;41.63;27.25;;;;;;;;;;4972398;28;20443;-69
2022/03/25 08:21:25;;;;;;;40.80;25.63;;;;;;;;;;4980096;28;20423;-70
2022/03/25 08:29:22;;;;;;;35.05;23.25;;;;;;;;;;4980899;28;20462;-70
2022/03/25 08:31:48;;;;;;;34.25;22.08;;;;;;;;;;4970134;28;20470;-69
2022/03/25 08:34:15;;;;;;;33.40;21.67;;;;;;;;;;4981931;28;20877;-69
2022/03/25 08:36:45;;;;;;;29.17;19.60;;;;;;;;;;4988941;28;21096;-70
2022/03/25 08:39:11;;;;;;;32.80;21.00;;;;;;;;;;4984124;28;21086;-69
2022/03/25 08:41:37;;;;;;;29.92;19.85;;;;;;;;;;4978984;28;20673;-69
2022/03/25 08:44:06;;;;;;;33.78;20.77;;;;;;;;;;4990301;28;20440;-69
2022/03/25 08:46:34;;;;;;;29.42;19.10;;;;;;;;;;4977642;28;20435;-69
2022/03/25 08:49:01;;;;;;;33.50;19.45;;;;;;;;;;5008220;28;20438;-70
2022/03/25 08:51:27;;;;;;;31.25;18.80;;;;;;;;;;4985022;28;20466;-70
2022/03/25 08:53:53;;;;;;;32.15;19.13;;;;;;;;;;4987156;28;20797;-70
2022/03/25 08:56:20;;;;;;;31.63;18.27;;;;;;;;;;4959864;28;20426;-70
2022/03/25 08:58:46;;;;;;;31.90;18.45;;;;;;;;;;4974493;28;20930;-70
2022/03/25 09:01:12;;;;;;;30.70;18.52;;;;;;;;;;4982281;28;20470;-69
2022/03/25 09:03:39;;;;;;;28.23;17.37;;;;;;;;;;4987903;28;20428;-69
2022/03/25 09:06:05;;;;;;;27.38;17.02;;;;;;;;;;4987579;28;20436;-69
2022/03/25 09:08:32;;;;;;;27.38;16.85;;;;;;;;;;4988099;28;20439;-69
2022/03/25 09:10:58;;;;;;;23.10;15.40;;;;;;;;;;5015155;28;20443;-69
2022/03/25 09:13:24;;;;;;;28.98;17.75;;;;;;;;;;4986362;28;20437;-70
2022/03/25 09:15:50;;;;;;;29.13;17.80;;;;;;;;;;4976806;28;20432;-70
2022/03/25 09:18:17;;;;;;;27.88;17.27;;;;;;;;;;4980042;28;20431;-69
2022/03/25 09:20:44;;;;;;;30.70;16.33;;;;;;;;;;4987876;28;20457;-70
2022/03/25 09:23:10;;;;;;;30.00;16.42;;;;;;;;;;4983916;28;20518;-69
2022/03/25 09:25:36;;;;;;;26.77;16.30;;;;;;;;;;4982166;28;20455;-70
2022/03/25 09:28:05;;;;;;;26.67;16.55;;;;;;;;;;4988354;28;20444;-70
2022/03/25 09:30:31;;;;;;;27.65;16.23;;;;;;;;;;5004204;28;20796;-69
2022/03/25 09:32:57;;;;;;;27.20;15.93;;;;;;;;;;4984531;28;20782;-70
2022/03/25 09:35:24;;;;;;;27.58;16.77;;;;;;;;;;4997192;28;20441;-70
2022/03/25 09:37:51;;;;;;;26.17;16.95;;;;;;;;;;4992385;28;20435;-69
2022/03/25 09:40:22;;;;;;;28.37;16.70;;;;;;;;;;5009650;28;20467;-70
2022/03/25 09:42:50;;;;;;;30.63;17.63;;;;;;;;;;5003744;28;20498;-69
2022/03/25 09:45:16;;;;;;;30.55;18.40;;;;;;;;;;4977379;28;20451;-70
2022/03/25 09:47:43;;;;;;;31.67;18.95;;;;;;;;;;4981685;28;20429;-70
2022/03/25 09:50:12;;;;;;;27.25;17.60;;;;;;;;;;4976808;28;20436;-70
2022/03/25 09:52:38;;;;;;;28.42;18.25;;;;;;;;;;4992704;28;21074;-71
2022/03/25 09:55:04;;;;;;;29.45;19.23;;;;;;;;;;4993220;28;20433;-70
2022/03/25 09:57:31;;;;;;;33.67;19.97;;;;;;;;;;4985782;28;20453;-70
2022/03/25 09:59:57;;;;;;;33.08;19.52;;;;;;;;;;5003026;28;20482;-70
2022/03/25 10:02:27;;;;;;;29.02;19.25;;;;;;;;;;4990737;28;20424;-70
2022/03/25 10:04:54;;;;;;;29.10;18.42;;;;;;;;;;5007563;28;20424;-70
2022/03/25 10:07:24;;;;;;;30.45;18.95;;;;;;;;;;4976837;28;20875;-70
2022/03/25 10:10:05;;;;;;;28.58;18.77;;;;;;;;;;5009868;28;20435;-70
2022/03/25 10:12:31;;;;;;;30.75;20.05;;;;;;;;;;4978199;28;20467;-70
2022/03/25 10:15:10;;;;;;;29.53;19.03;;;;;;;;;;4978853;28;20416;-70
2022/03/25 10:17:49;;;;;;;32.60;18.42;;;;;;;;;;5029404;28;20518;-70
2022/03/25 10:20:15;;;;;;;27.02;18.40;;;;;;;;;;4975720;28;20427;-70
2022/03/25 10:22:59;;;;;;;27.95;17.35;;;;;;;;;;4995204;28;20425;-70
2022/03/25 10:25:33;;;;;;;26.52;17.55;;;;;;;;;;4976641;28;20462;-70
2022/03/25 10:27:58;;;;;;;30.08;17.73;;;14.70;99.90;;;;;;4979985;28;22655;-70
2022/03/25 10:30:38;;;;;;;29.80;17.25;;;;;;;;;;4994840;28;20424;-70
2022/03/25 10:33:12;;;;;;;25.98;16.85;;;;;;;;;;4983250;28;20531;-70
2022/03/25 10:35:53;;;;;;;26.00;17.20;;;;;;;;;;5011446;28;20938;-69
2022/03/25 10:38:21;;;;;;;26.05;17.13;;;;;;;;;;5007347;28;20447;-69
2022/03/25 10:40:51;;;;;;;28.17;17.40;;;;;;;;;;5007943;28;20528;-69
2022/03/25 10:43:17;;;;;;;22.70;16.40;;;;;;;;;;4986004;28;20439;-69
2022/03/25 10:45:45;;;;;;;25.17;16.38;;;;;;;;;;5012621;28;20498;-69
2022/03/25 10:48:21;;;;;;;27.55;17.58;;;;;;;;;;4999829;28;20428;-69
2022/03/25 10:51:01;;;;;;;25.42;16.65;;;;;;;;;;4979378;28;20464;-70
2022/03/25 10:53:28;;;;;;;25.17;16.52;;;;;;;;;;4989698;28;20447;-69
2022/03/25 10:55:59;;;;;;;24.85;17.05;;;;;;;;;;5005660;28;20432;-69
2022/03/25 10:58:25;;;;;;;25.20;17.60;;;;;;;;;;4983327;28;20696;-69
2022/03/25 11:00:51;;;;;;;29.77;18.17;;;;;;;;;;5009589;27;20429;-69
2022/03/25 11:03:18;;;;;;;29.75;17.50;;;;;;;;;;5019745;28;20443;-69
2022/03/25 11:05:44;;;;;;;33.63;17.85;;;;;;;;;;4976074;28;20451;-69
2022/03/25 11:08:11;;;;;;;27.38;17.52;;;;;;;;;;5013122;28;20426;-69
2022/03/25 11:10:38;;;;;;;28.63;17.30;;;;;;;;;;4980989;28;20421;-70
2022/03/25 11:13:04;;;;;;;26.63;17.20;;;;;;;;;;4986904;28;21000;-75
2022/03/25 11:15:31;;;;;;;25.35;16.52;;;;;;;;;;4993764;28;20828;-69
2022/03/25 11:17:57;;;;;;;28.90;17.15;;;;;;;;;;4984691;28;20426;-70
2022/03/25 11:20:25;;;;;;;28.43;17.57;;;;;;;;;;4975991;28;20573;-70
2022/03/25 11:23:00;;;;;;;30.13;18.48;;;;;;;;;;4998740;28;20944;-70
2022/03/25 11:25:28;;;;;;;28.70;17.80;;;;;;;;;;5000848;28;20527;-70
2022/03/25 11:28:09;;;;;;;25.13;16.83;;;;;;;;;;5000052;28;20427;-70
2022/03/25 11:30:36;;;;;;;29.55;17.60;;;;;;;;;;5008054;28;20433;-69
2022/03/25 11:33:06;;;;;;;27.15;18.00;;;;;;;;;;4979501;28;20444;-70
2022/03/25 11:35:41;;;;;;;28.90;17.33;;;16.50;99.10;;;;;;5000517;28;20449;-69
2022/03/25 11:38:11;;;;;;;28.98;17.48;;;;;;;;;;5036726;28;20433;-69
2022/03/25 11:40:42;;;;;;;25.23;16.42;;;;;;;;;;5016014;28;20464;-69
2022/03/25 11:43:21;;;;;;;25.05;16.52;;;16.40;98.30;;;;;;4998843;28;20456;-69
2022/03/25 11:45:59;;;;;;;24.50;15.15;;;;;;;;;;4997755;28;20589;-69
2022/03/25 11:48:25;;;;;;;23.08;14.10;;;;;;;;;;4973999;28;20462;-69
2022/03/25 11:50:52;;;;;;;21.43;14.43;;;;;;;;;;4991023;28;20624;-69
2022/03/25 11:53:22;;;;;;;22.80;15.20;;;;;;;;;;4999190;28;20927;-70
2022/03/25 11:56:04;;;;;;;22.95;14.95;;;;;;;;;;4981637;28;20487;-69
2022/03/25 11:58:38;;;;;;;23.13;14.40;;;;;;;;;;5014280;28;20882;-70
2022/03/25 12:01:04;;;;;;;23.55;15.07;;;;;;;;;;5002141;28;20440;-70
2022/03/25 12:03:42;;;;;;;26.08;17.77;;;17.00;95.20;;;;;;4989155;28;20430;-70
2022/03/25 12:06:08;;;;;;;24.42;16.10;;;;;;;;;;4990736;28;20435;-70
2022/03/25 12:08:39;;;;;;;21.55;13.98;;;17.60;94.20;;;;;;4995921;28;20733;-70
2022/03/25 12:11:07;;;;;;;22.45;13.88;;;;;;;;;;4994413;28;20441;-71
2022/03/25 12:13:54;;;;;;;22.10;13.80;;;;;;;;;;4997256;28;20568;-70
2022/03/25 12:16:45;;;;;;;23.25;15.38;;;18.00;92.30;;;;;;4996239;28;20934;-70
2022/03/25 12:19:26;;;;;;;26.23;17.83;;;;;;;;;;4977418;28;20486;-70
2022/03/25 12:21:59;;;;;;;25.35;15.85;;;;;;;;;;5002559;28;20453;-70
2022/03/25 12:24:26;;;;;;;26.50;18.58;;;18.30;93.80;;;;;;5004150;28;20481;-70
2022/03/25 12:26:57;;;;;;;28.58;18.98;;;;;;;;;;5039631;28;20514;-70
2022/03/25 12:29:36;;;;;;;29.90;19.25;;;;;;;;;;5003181;28;20437;-70
2022/03/25 12:32:02;;;;;;;26.75;17.73;;;;;;;;;;5007854;28;20859;-70
2022/03/25 12:34:34;;;;;;;26.13;17.27;;;;;;;;;;4980920;28;20435;-70
2022/03/25 12:37:03;;;;;;;26.83;17.98;;;;;;;;;;4989102;28;20952;-70
2022/03/25 12:39:29;;;;;;;28.02;17.83;;;;;;;;;;4997267;28;20935;-70
2022/03/25 12:41:55;;;;;;;24.70;16.43;;;;;;;;;;4999642;28;20594;-70
2022/03/25 12:44:28;;;;;;;26.95;16.67;;;;;;;;;;4983147;28;20464;-70
2022/03/25 12:47:01;;;;;;;24.38;16.33;;;18.90;91.40;;;;;;5017251;28;20435;-70
2022/03/25 12:49:28;;;;;;;25.55;16.08;;;;;;;;;;4994185;28;20429;-70
2022/03/25 12:52:05;;;;;;;25.02;15.80;;;;;;;;;;4981781;28;20460;-69
2022/03/25 12:54:35;;;;;;;24.45;15.60;;;;;;;;;;4987269;28;20614;-69
2022/03/25 12:57:05;;;;;;;23.95;14.18;;;19.10;89.90;;;;;;5006807;28;20456;-70
2022/03/25 12:59:35;;;;;;;21.33;13.32;;;19.00;88.00;;;;;;4972721;28;20568;-70
2022/03/25 13:02:08;;;;;;;22.88;13.93;;;18.90;87.40;;;;;;5022138;28;20444;-71
2022/03/25 13:04:34;;;;;;;23.23;14.48;;;;;;;;;;4977147;28;20464;-70
2022/03/25 13:07:15;;;;;;;22.02;14.07;;;;;;;;;;4975987;28;20970;-70
2022/03/25 13:10:00;;;;;;;21.50;13.98;;;;;;;;;;4976670;28;20452;-70
2022/03/25 13:12:37;;;;;;;20.50;13.48;;;;;;;;;;4972890;28;20454;-70
2022/03/25 13:15:04;;;;;;;22.15;14.57;;;;;;;;;;4985515;28;20439;-69
2022/03/25 13:17:41;;;;;;;22.27;14.60;;;;;;;;;;4979554;28;20416;-69
2022/03/25 13:20:13;;;;;;;18.90;13.38;;;;;;;;;;4973149;28;20439;-69
2022/03/25 13:22:53;;;;;;;22.85;15.27;;;;;;;;;;4986968;28;20808;-69
2022/03/25 13:25:24;;;;;;;22.47;15.43;;;;;;;;;;5006047;27;20430;-69
2022/03/25 13:27:50;;;;;;;24.17;16.33;;;;;;;;;;4987935;28;20928;-69
2022/03/25 13:30:16;;;;;;;21.73;15.73;;;;;;;;;;4989406;28;20443;-69
2022/03/25 13:32:42;;;;;;;23.20;16.13;;;;;;;;;;4987728;28;20468;-70
2022/03/25 13:35:13;;;;;;;23.02;16.27;;;;;;;;;;4991106;28;20432;-68
2022/03/25 13:37:40;;;;;;;24.70;17.38;;;;;;;;;;4966613;28;20449;-69
2022/03/25 13:40:29;;;;;;;28.45;16.70;;;;;;;;;;4989636;28;20935;-71
2022/03/25 13:42:56;;;;;;;27.17;17.35;;;;;;;;;;4968150;28;20455;-70
2022/03/25 13:45:23;;;;;;;25.83;16.77;;;;;;;;;;4969816;28;20453;-70
2022/03/25 13:48:04;;;;;;;23.63;16.20;;;;;;;;;;4990875;28;20436;-70
2022/03/25 13:50:30;;;;;;;27.42;16.83;;;;;;;;;;4972736;28;20545;-70
2022/03/25 13:53:09;;;;;;;23.35;16.13;;;;;;;;;;4970799;28;20433;-70
2022/03/25 13:55:36;;;;;;;26.00;16.42;;;;;;;;;;4974190;28;20455;-70
2022/03/25 13:58:03;;;;;;;29.25;16.48;;;17.20;91.50;;;;;;4986893;28;21243;-70
2022/03/25 14:00:31;;;;;;;24.20;16.02;;;;;;;;;;5005508;28;20509;-70
2022/03/25 14:02:57;;;;;;;24.38;15.98;;;17.20;91.30;;;;;;4969306;28;20490;-70
2022/03/25 14:05:25;;;;;;;24.90;15.93;;;;;;;;;;4955689;28;20498;-71
2022/03/25 14:07:57;;;;;;;24.77;16.43;;;;;;;;;;4972089;28;20424;-71
2022/03/25 14:10:23;;;;;;;26.73;16.10;;;;;;;;;;4969999;28;20547;-70
2022/03/25 14:13:07;;;;;;;23.58;15.88;;;;;;;;;;4985703;28;20432;-70
2022/03/25 14:15:33;;;;;;;23.13;14.70;;;17.30;90.60;;;;;;4996239;28;20541;-71
2022/03/25 14:17:59;;;;;;;25.17;14.82;;;;;;;;;;4983755;28;20490;-70